createdAt,value
2019-02-26T00:00:51.956Z,0.00
2019-02-26T00:01:50.710Z,0.00
2019-02-26T00:02:51.188Z,0.00
2019-02-26T00:03:50.264Z,0.00
2019-02-26T00:04:52.136Z,0.00
2019-02-26T00:05:52.143Z,0.00
2019-02-26T00:06:51.476Z,0.00
2019-02-26T00:07:51.582Z,0.00
2019-02-26T00:08:53.300Z,0.00
2019-02-26T00:09:51.361Z,0.00
2019-02-26T00:10:50.302Z,0.00
2019-02-26T00:11:49.888Z,0.00
2019-02-26T00:12:50.138Z,0.00
2019-02-26T00:13:50.767Z,0.00
2019-02-26T00:14:50.181Z,0.00
2019-02-26T00:15:49.643Z,0.00
2019-02-26T00:16:51.032Z,0.00
2019-02-26T00:17:50.875Z,0.00
2019-02-26T00:18:49.522Z,0.00
2019-02-26T00:19:49.529Z,0.00
2019-02-26T00:20:49.402Z,0.00
2019-02-26T00:21:51.474Z,0.00
2019-02-26T00:22:49.281Z,0.00
2019-02-26T00:23:51.458Z,0.00
2019-02-26T00:24:49.170Z,0.00
2019-02-26T00:25:49.165Z,0.00
2019-02-26T00:26:49.175Z,0.00
2019-02-26T00:27:49.647Z,0.00
2019-02-26T00:28:49.046Z,0.00
2019-02-26T00:29:50.807Z,0.00
2019-02-26T00:30:48.920Z,0.00
2019-02-26T00:31:50.694Z,0.00
2019-02-26T00:32:48.802Z,0.00
2019-02-26T00:33:48.813Z,0.00
2019-02-26T00:34:48.678Z,0.00
2019-02-26T00:35:50.276Z,0.00
2019-02-26T00:36:48.676Z,0.00
2019-02-26T00:37:50.887Z,0.00
2019-02-26T00:38:48.558Z,0.00
2019-02-26T00:39:49.758Z,0.00
2019-02-26T00:40:48.440Z,0.00
2019-02-26T00:41:51.284Z,0.00
2019-02-26T00:42:50.241Z,0.00
2019-02-26T00:43:51.236Z,0.00
2019-02-26T00:44:51.307Z,0.00
2019-02-26T00:45:48.195Z,0.00
2019-02-26T00:46:48.159Z,0.00
2019-02-26T00:47:48.074Z,0.00
2019-02-26T00:48:48.076Z,0.00
2019-02-26T00:49:48.555Z,0.00
2019-02-26T00:50:47.954Z,0.00
2019-02-26T00:51:48.274Z,0.00
2019-02-26T00:52:47.836Z,0.00
2019-02-26T00:53:50.788Z,0.00
2019-02-26T00:54:47.714Z,0.00
2019-02-26T00:55:47.712Z,0.00
2019-02-26T00:56:47.595Z,0.00
2019-02-26T00:57:47.594Z,0.00
2019-02-26T00:58:48.371Z,0.00
2019-02-26T00:59:48.106Z,0.00
2019-02-26T01:00:47.473Z,0.00
2019-02-26T01:01:48.232Z,0.00
2019-02-26T01:02:47.354Z,0.00
2019-02-26T01:03:49.248Z,0.00
2019-02-26T01:04:48.551Z,0.00
2019-02-26T01:05:47.233Z,0.00
2019-02-26T01:06:47.110Z,0.00
2019-02-26T01:07:49.482Z,0.00
2019-02-26T01:08:47.180Z,0.00
2019-02-26T01:09:47.788Z,0.00
2019-02-26T01:10:46.994Z,0.00
2019-02-26T01:11:47.620Z,0.00
2019-02-26T01:12:46.870Z,0.00
2019-02-26T01:13:48.292Z,0.00
2019-02-26T01:14:48.103Z,0.00
2019-02-26T01:15:46.750Z,0.00
2019-02-26T01:16:48.275Z,0.00
2019-02-26T01:17:46.640Z,0.00
2019-02-26T01:18:47.279Z,0.00
2019-02-26T01:19:46.510Z,0.00
2019-02-26T01:20:50.313Z,0.00
2019-02-26T01:21:46.391Z,0.00
2019-02-26T01:22:46.387Z,0.00
2019-02-26T01:23:46.267Z,0.00
2019-02-26T01:24:48.148Z,0.00
2019-02-26T01:25:46.269Z,0.00
2019-02-26T01:26:46.147Z,0.00
2019-02-26T01:27:48.270Z,0.00
2019-02-26T01:28:48.255Z,0.00
2019-02-26T01:29:47.246Z,0.00
2019-02-26T01:30:45.910Z,0.00
2019-02-26T01:31:45.906Z,0.00
2019-02-26T01:32:45.906Z,0.00
2019-02-26T01:33:46.749Z,0.00
2019-02-26T01:34:47.824Z,0.00
2019-02-26T01:35:45.664Z,0.00
2019-02-26T01:36:47.758Z,0.00
2019-02-26T01:37:45.673Z,0.00
2019-02-26T01:38:46.350Z,0.00
2019-02-26T01:39:47.239Z,0.00
2019-02-26T01:40:46.530Z,0.00
2019-02-26T01:41:46.072Z,0.00
2019-02-26T01:42:49.741Z,0.00
2019-02-26T01:43:45.307Z,0.00
2019-02-26T01:44:45.310Z,0.00
2019-02-26T01:45:46.263Z,0.00
2019-02-26T01:46:45.187Z,0.00
2019-02-26T01:47:48.020Z,0.00
2019-02-26T01:48:45.063Z,0.00
2019-02-26T01:49:46.533Z,0.00
2019-02-26T01:50:44.945Z,0.00
2019-02-26T01:51:46.910Z,0.00
2019-02-26T01:52:44.827Z,0.00
2019-02-26T01:53:46.917Z,0.00
2019-02-26T01:54:44.822Z,0.00
2019-02-26T01:55:45.913Z,0.00
2019-02-26T01:56:44.701Z,0.00
2019-02-26T01:57:44.581Z,0.00
2019-02-26T01:58:44.580Z,0.00
2019-02-26T01:59:44.579Z,0.00
2019-02-26T02:00:44.464Z,0.00
2019-02-26T02:01:46.473Z,0.00
2019-02-26T02:02:44.342Z,0.00
2019-02-26T02:03:46.450Z,0.00
2019-02-26T02:04:44.337Z,0.00
2019-02-26T02:05:45.823Z,0.00
2019-02-26T02:06:44.221Z,0.00
2019-02-26T02:07:46.402Z,0.00
2019-02-26T02:08:45.873Z,0.00
2019-02-26T02:09:46.559Z,0.00
2019-02-26T02:10:43.977Z,0.00
2019-02-26T02:11:43.978Z,0.00
2019-02-26T02:12:43.859Z,0.00
2019-02-26T02:13:43.898Z,0.00
2019-02-26T02:14:43.738Z,0.00
2019-02-26T02:15:44.442Z,0.00
2019-02-26T02:16:43.755Z,0.00
2019-02-26T02:17:43.622Z,0.00
2019-02-26T02:18:46.063Z,0.00
2019-02-26T02:19:43.495Z,0.00
2019-02-26T02:20:43.504Z,0.00
2019-02-26T02:21:43.458Z,0.00
2019-02-26T02:22:44.417Z,0.00
2019-02-26T02:23:44.256Z,0.00
2019-02-26T02:24:44.501Z,0.00
2019-02-26T02:25:43.887Z,0.00
2019-02-26T02:26:45.318Z,0.00
2019-02-26T02:27:47.475Z,0.00
2019-02-26T02:28:43.137Z,0.00
2019-02-26T02:29:45.726Z,0.00
2019-02-26T02:30:43.017Z,0.00
2019-02-26T02:31:42.892Z,0.00
2019-02-26T02:32:42.894Z,0.00
2019-02-26T02:33:42.896Z,0.00
2019-02-26T02:34:43.110Z,0.00
2019-02-26T02:35:42.774Z,0.00
2019-02-26T02:36:42.652Z,0.00
2019-02-26T02:37:42.657Z,0.00
2019-02-26T02:38:42.616Z,0.00
2019-02-26T02:39:42.533Z,0.00
2019-02-26T02:40:43.128Z,0.00
2019-02-26T02:41:44.643Z,0.00
2019-02-26T02:42:43.126Z,0.00
2019-02-26T02:43:42.293Z,0.00
2019-02-26T02:44:44.410Z,0.00
2019-02-26T02:45:42.290Z,0.00
2019-02-26T02:46:44.384Z,0.00
2019-02-26T02:47:42.178Z,0.00
2019-02-26T02:48:42.062Z,0.00
2019-02-26T02:49:44.242Z,0.00
2019-02-26T02:50:42.049Z,0.00
2019-02-26T02:51:41.931Z,0.00
2019-02-26T02:52:41.942Z,0.00
2019-02-26T02:53:41.808Z,0.00
2019-02-26T02:54:44.127Z,0.00
2019-02-26T02:55:44.222Z,0.00
2019-02-26T02:56:42.470Z,0.00
2019-02-26T02:57:41.687Z,0.00
2019-02-26T02:58:43.578Z,0.00
2019-02-26T02:59:42.240Z,0.00
2019-02-26T03:00:41.452Z,0.00
2019-02-26T03:01:43.080Z,0.00
2019-02-26T03:02:43.219Z,0.00
2019-02-26T03:03:41.329Z,0.00
2019-02-26T03:04:41.329Z,0.00
2019-02-26T03:05:43.198Z,0.00
2019-02-26T03:06:41.207Z,0.00
2019-02-26T03:07:42.352Z,0.00
2019-02-26T03:08:42.375Z,0.00
2019-02-26T03:09:43.056Z,0.00
2019-02-26T03:10:43.088Z,0.00
2019-02-26T03:11:41.978Z,0.00
2019-02-26T03:12:43.531Z,0.00
2019-02-26T03:13:43.096Z,0.00
2019-02-26T03:14:42.093Z,0.00
2019-02-26T03:15:40.727Z,0.00
2019-02-26T03:16:42.498Z,0.00
2019-02-26T03:17:40.604Z,0.00
2019-02-26T03:18:40.602Z,0.00
2019-02-26T03:19:41.763Z,0.00
2019-02-26T03:20:40.517Z,0.00
2019-02-26T03:21:42.115Z,0.00
2019-02-26T03:22:43.138Z,0.00
2019-02-26T03:23:42.997Z,0.00
2019-02-26T03:24:40.325Z,0.00
2019-02-26T03:25:41.477Z,0.00
2019-02-26T03:26:40.245Z,0.00
2019-02-26T03:27:42.596Z,0.00
2019-02-26T03:28:42.141Z,0.00
2019-02-26T03:29:40.000Z,0.00
2019-02-26T03:30:43.936Z,0.00
2019-02-26T03:31:45.341Z,0.00
2019-02-26T03:32:41.270Z,0.00
2019-02-26T03:33:39.889Z,0.00
2019-02-26T03:34:39.764Z,0.00
2019-02-26T03:35:39.763Z,0.00
2019-02-26T03:36:40.821Z,0.00
2019-02-26T03:37:39.641Z,0.00
2019-02-26T03:38:40.853Z,0.00
2019-02-26T03:39:39.521Z,0.00
2019-02-26T03:40:39.523Z,0.00
2019-02-26T03:41:39.406Z,0.00
2019-02-26T03:42:41.599Z,0.00
2019-02-26T03:43:41.729Z,0.00
2019-02-26T03:44:39.291Z,0.00
2019-02-26T03:45:39.283Z,0.00
2019-02-26T03:46:39.161Z,0.00
2019-02-26T03:47:40.596Z,0.00
2019-02-26T03:48:39.176Z,0.00
2019-02-26T03:49:41.699Z,0.00
2019-02-26T03:50:39.036Z,0.00
2019-02-26T03:51:39.671Z,0.00
2019-02-26T03:52:38.922Z,0.00
2019-02-26T03:53:39.924Z,0.00
2019-02-26T03:54:40.222Z,0.00
2019-02-26T03:55:39.668Z,0.00
2019-02-26T03:56:38.676Z,0.00
2019-02-26T03:57:43.561Z,0.00
2019-02-26T03:58:38.570Z,0.00
2019-02-26T03:59:38.556Z,0.00
2019-02-26T04:00:41.031Z,0.00
2019-02-26T04:01:38.434Z,0.00
2019-02-26T04:02:39.919Z,0.00
2019-02-26T04:03:39.544Z,0.00
2019-02-26T04:04:38.315Z,0.00
2019-02-26T04:05:38.276Z,0.00
2019-02-26T04:06:39.002Z,0.00
2019-02-26T04:07:38.203Z,0.00
2019-02-26T04:08:38.079Z,0.00
2019-02-26T04:09:41.823Z,0.00
2019-02-26T04:10:37.953Z,0.00
2019-02-26T04:11:39.679Z,0.00
2019-02-26T04:12:41.973Z,0.00
2019-02-26T04:13:37.831Z,0.00
2019-02-26T04:14:37.838Z,0.00
2019-02-26T04:15:38.380Z,0.00
2019-02-26T04:16:38.568Z,0.00
2019-02-26T04:17:39.498Z,0.00
2019-02-26T04:18:37.591Z,0.00
2019-02-26T04:19:37.593Z,0.00
2019-02-26T04:20:37.473Z,0.00
2019-02-26T04:21:37.480Z,0.00
2019-02-26T04:22:42.285Z,0.00
2019-02-26T04:23:38.939Z,0.00
2019-02-26T04:24:38.103Z,0.00
2019-02-26T04:25:37.232Z,0.00
2019-02-26T04:26:37.231Z,0.00
2019-02-26T04:27:39.309Z,0.00
2019-02-26T04:28:39.555Z,0.00
2019-02-26T04:29:38.023Z,0.00
2019-02-26T04:30:39.341Z,0.00
2019-02-26T04:31:36.987Z,0.00
2019-02-26T04:32:40.442Z,0.00
2019-02-26T04:33:39.248Z,0.00
2019-02-26T04:34:36.747Z,0.00
2019-02-26T04:35:36.750Z,0.00
2019-02-26T04:36:39.443Z,0.00
2019-02-26T04:37:38.524Z,0.00
2019-02-26T04:38:36.627Z,0.00
2019-02-26T04:39:36.987Z,0.00
2019-02-26T04:40:38.918Z,0.00
2019-02-26T04:41:36.507Z,0.00
2019-02-26T04:42:38.373Z,0.00
2019-02-26T04:43:38.745Z,0.00
2019-02-26T04:44:36.266Z,0.00
2019-02-26T04:45:36.268Z,0.00
2019-02-26T04:46:39.045Z,0.00
2019-02-26T04:47:36.150Z,0.00
2019-02-26T04:48:36.146Z,0.00
2019-02-26T04:49:38.982Z,0.00
2019-02-26T04:50:38.767Z,0.00
2019-02-26T04:51:36.295Z,0.00
2019-02-26T04:52:40.006Z,0.00
2019-02-26T04:53:36.460Z,0.00
2019-02-26T04:54:36.870Z,0.00
2019-02-26T04:55:38.219Z,0.00
2019-02-26T04:56:37.038Z,0.00
2019-02-26T04:57:39.404Z,0.00
2019-02-26T04:58:37.200Z,0.00
2019-02-26T04:59:37.900Z,0.00
2019-02-26T05:00:38.356Z,0.00
2019-02-26T05:01:35.425Z,0.00
2019-02-26T05:02:35.424Z,0.00
2019-02-26T05:03:35.306Z,0.00
2019-02-26T05:04:36.826Z,0.00
2019-02-26T05:05:37.132Z,0.00
2019-02-26T05:06:35.181Z,0.00
2019-02-26T05:07:36.119Z,0.00
2019-02-26T05:08:37.592Z,0.00
2019-02-26T05:09:35.470Z,0.00
2019-02-26T05:10:35.071Z,0.00
2019-02-26T05:11:39.874Z,0.00
2019-02-26T05:12:37.218Z,0.00
2019-02-26T05:13:34.824Z,0.00
2019-02-26T05:14:34.822Z,0.00
2019-02-26T05:15:34.702Z,0.00
2019-02-26T05:16:36.995Z,0.00
2019-02-26T05:17:34.705Z,0.00
2019-02-26T05:18:34.647Z,0.00
2019-02-26T05:19:36.462Z,0.00
2019-02-26T05:20:36.653Z,0.00
2019-02-26T05:21:35.518Z,0.00
2019-02-26T05:22:34.422Z,0.00
2019-02-26T05:23:34.343Z,0.00
2019-02-26T05:24:34.346Z,0.00
2019-02-26T05:25:35.114Z,0.00
2019-02-26T05:26:34.216Z,0.00
2019-02-26T05:27:36.138Z,0.00
2019-02-26T05:28:37.664Z,0.00
2019-02-26T05:29:34.096Z,0.00
2019-02-26T05:30:33.981Z,0.00
2019-02-26T05:31:35.813Z,0.00
2019-02-26T05:32:35.504Z,0.00
2019-02-26T05:33:33.861Z,0.00
2019-02-26T05:34:33.819Z,0.00
2019-02-26T05:35:33.735Z,0.00
2019-02-26T05:36:36.740Z,0.00
2019-02-26T05:37:35.376Z,0.00
2019-02-26T05:38:35.015Z,0.00
2019-02-26T05:39:33.494Z,0.00
2019-02-26T05:40:37.448Z,0.00
2019-02-26T05:41:33.493Z,0.00
2019-02-26T05:42:33.378Z,0.00
2019-02-26T05:43:33.984Z,0.00
2019-02-26T05:44:33.253Z,0.00
2019-02-26T05:45:35.597Z,0.00
2019-02-26T05:46:33.135Z,0.00
2019-02-26T05:47:33.131Z,0.00
2019-02-26T05:48:33.133Z,0.00
2019-02-26T05:49:35.324Z,0.00
2019-02-26T05:50:35.552Z,0.00
2019-02-26T05:51:35.470Z,0.00
2019-02-26T05:52:33.690Z,0.00
2019-02-26T05:53:32.892Z,0.00
2019-02-26T05:54:32.775Z,0.00
2019-02-26T05:55:32.773Z,0.00
2019-02-26T05:56:34.136Z,0.00
2019-02-26T05:57:32.916Z,0.00
2019-02-26T05:58:33.611Z,0.00
2019-02-26T05:59:32.531Z,0.00
2019-02-26T06:00:33.383Z,0.00
2019-02-26T06:01:32.410Z,0.00
2019-02-26T06:02:32.430Z,0.00
2019-02-26T06:03:32.287Z,0.00
2019-02-26T06:04:35.214Z,0.00
2019-02-26T06:05:32.287Z,0.00
2019-02-26T06:06:32.173Z,0.00
2019-02-26T06:07:35.537Z,0.00
2019-02-26T06:08:33.756Z,0.00
2019-02-26T06:09:33.775Z,0.00
2019-02-26T06:10:32.632Z,0.00
2019-02-26T06:11:34.018Z,0.00
2019-02-26T06:12:32.703Z,0.00
2019-02-26T06:13:34.612Z,0.00
2019-02-26T06:14:33.130Z,0.00
2019-02-26T06:15:34.051Z,0.00
2019-02-26T06:16:31.690Z,0.00
2019-02-26T06:17:31.688Z,0.00
2019-02-26T06:18:31.564Z,0.00
2019-02-26T06:19:34.303Z,0.00
2019-02-26T06:20:33.947Z,0.00
2019-02-26T06:21:31.446Z,0.00
2019-02-26T06:22:31.880Z,0.00
2019-02-26T06:23:33.934Z,0.00
2019-02-26T06:24:33.182Z,0.00
2019-02-26T06:25:31.209Z,0.00
2019-02-26T06:26:33.326Z,0.00
2019-02-26T06:27:31.085Z,0.00
2019-02-26T06:28:35.395Z,0.00
2019-02-26T06:29:32.624Z,0.00
2019-02-26T06:30:30.963Z,0.00
2019-02-26T06:31:30.961Z,0.00
2019-02-26T06:32:32.838Z,0.00
2019-02-26T06:33:34.161Z,0.00
2019-02-26T06:34:30.722Z,0.00
2019-02-26T06:35:31.535Z,0.00
2019-02-26T06:36:30.720Z,0.00
2019-02-26T06:37:31.366Z,0.00
2019-02-26T06:38:32.693Z,0.00
2019-02-26T06:39:32.233Z,5.63
2019-02-26T06:40:32.421Z,5.63
2019-02-26T06:41:30.444Z,5.63
2019-02-26T06:42:31.628Z,5.63
2019-02-26T06:43:30.975Z,5.63
2019-02-26T06:44:30.243Z,5.63
2019-02-26T06:45:30.241Z,5.63
2019-02-26T06:46:32.038Z,5.63
2019-02-26T06:47:31.051Z,5.63
2019-02-26T06:48:32.262Z,5.63
2019-02-26T06:49:30.003Z,5.63
2019-02-26T06:50:31.679Z,5.63
2019-02-26T06:51:30.775Z,5.63
2019-02-26T06:52:35.153Z,5.63
2019-02-26T06:53:29.761Z,5.63
2019-02-26T06:54:31.811Z,5.63
2019-02-26T06:55:29.759Z,5.63
2019-02-26T06:56:30.195Z,11.25
2019-02-26T06:57:29.638Z,11.25
2019-02-26T06:58:29.527Z,11.25
2019-02-26T06:59:31.739Z,11.25
2019-02-26T07:00:29.570Z,11.25
2019-02-26T07:01:32.315Z,11.25
2019-02-26T07:02:29.397Z,11.25
2019-02-26T07:03:29.276Z,11.25
2019-02-26T07:04:30.152Z,11.25
2019-02-26T07:05:29.155Z,11.25
2019-02-26T07:06:30.279Z,11.25
2019-02-26T07:07:35.478Z,11.25
2019-02-26T07:08:30.909Z,11.25
2019-02-26T07:09:29.037Z,11.25
2019-02-26T07:10:31.290Z,11.25
2019-02-26T07:11:31.319Z,16.88
2019-02-26T07:12:28.915Z,16.88
2019-02-26T07:13:28.798Z,16.88
2019-02-26T07:14:30.243Z,16.88
2019-02-26T07:15:29.416Z,16.88
2019-02-26T07:16:28.673Z,22.50
2019-02-26T07:17:31.513Z,22.50
2019-02-26T07:18:28.552Z,22.50
2019-02-26T07:19:30.718Z,28.13
2019-02-26T07:20:34.178Z,28.13
2019-02-26T07:21:28.431Z,28.13
2019-02-26T07:22:28.311Z,33.75
2019-02-26T07:23:29.814Z,39.38
2019-02-26T07:24:28.314Z,39.38
2019-02-26T07:25:28.195Z,45.00
2019-02-26T07:26:28.192Z,45.00
2019-02-26T07:27:28.933Z,45.00
2019-02-26T07:28:28.074Z,50.63
2019-02-26T07:29:30.696Z,50.63
2019-02-26T07:30:27.949Z,56.25
2019-02-26T07:31:28.821Z,61.88
2019-02-26T07:32:27.829Z,61.88
2019-02-26T07:33:29.828Z,67.50
2019-02-26T07:34:27.710Z,67.50
2019-02-26T07:35:28.764Z,73.13
2019-02-26T07:36:28.228Z,73.13
2019-02-26T07:37:28.709Z,73.13
2019-02-26T07:38:27.766Z,73.13
2019-02-26T07:39:27.472Z,78.75
2019-02-26T07:40:28.463Z,78.75
2019-02-26T07:41:29.823Z,78.75
2019-02-26T07:42:27.347Z,78.75
2019-02-26T07:43:27.347Z,78.75
2019-02-26T07:44:28.453Z,78.75
2019-02-26T07:45:27.840Z,78.75
2019-02-26T07:46:27.128Z,78.75
2019-02-26T07:47:28.888Z,84.38
2019-02-26T07:48:28.932Z,84.38
2019-02-26T07:49:26.983Z,84.38
2019-02-26T07:50:31.510Z,84.38
2019-02-26T07:51:26.867Z,84.38
2019-02-26T07:52:28.458Z,84.38
2019-02-26T07:53:26.866Z,84.38
2019-02-26T07:54:28.712Z,90.00
2019-02-26T07:55:27.560Z,90.00
2019-02-26T07:56:28.179Z,90.00
2019-02-26T07:57:27.638Z,90.00
2019-02-26T07:58:26.590Z,90.00
2019-02-26T07:59:27.794Z,95.63
2019-02-26T08:00:26.503Z,95.63
2019-02-26T08:01:26.381Z,95.63
2019-02-26T08:02:27.910Z,95.63
2019-02-26T08:03:27.578Z,95.63
2019-02-26T08:04:26.260Z,95.63
2019-02-26T08:05:28.811Z,95.63
2019-02-26T08:06:26.724Z,95.63
2019-02-26T08:07:28.148Z,95.63
2019-02-26T08:08:26.024Z,90.00
2019-02-26T08:09:26.022Z,90.00
2019-02-26T08:10:26.030Z,90.00
2019-02-26T08:11:25.899Z,90.00
2019-02-26T08:12:25.899Z,90.00
2019-02-26T08:13:28.517Z,90.00
2019-02-26T08:14:25.790Z,95.63
2019-02-26T08:15:27.657Z,90.00
2019-02-26T08:16:27.514Z,90.00
2019-02-26T08:17:25.658Z,90.00
2019-02-26T08:18:25.538Z,90.00
2019-02-26T08:19:29.520Z,90.00
2019-02-26T08:20:25.539Z,90.00
2019-02-26T08:21:27.101Z,90.00
2019-02-26T08:22:27.118Z,84.38
2019-02-26T08:23:26.413Z,84.38
2019-02-26T08:24:25.302Z,78.75
2019-02-26T08:25:25.303Z,78.75
2019-02-26T08:26:26.758Z,78.75
2019-02-26T08:27:26.361Z,78.75
2019-02-26T08:28:25.057Z,73.13
2019-02-26T08:29:27.215Z,73.13
2019-02-26T08:30:26.130Z,73.13
2019-02-26T08:31:25.527Z,73.13
2019-02-26T08:32:25.804Z,73.13
2019-02-26T08:33:24.817Z,73.13
2019-02-26T08:34:24.814Z,73.13
2019-02-26T08:35:24.813Z,73.13
2019-02-26T08:36:24.693Z,67.50
2019-02-26T08:37:24.693Z,61.88
2019-02-26T08:38:24.575Z,67.50
2019-02-26T08:39:24.574Z,67.50
2019-02-26T08:40:24.576Z,67.50
2019-02-26T08:41:24.452Z,67.50
2019-02-26T08:42:24.453Z,67.50
2019-02-26T08:43:24.333Z,67.50
2019-02-26T08:44:24.332Z,67.50
2019-02-26T08:45:25.826Z,67.50
2019-02-26T08:46:24.209Z,67.50
2019-02-26T08:47:24.210Z,67.50
2019-02-26T08:48:24.597Z,67.50
2019-02-26T08:49:24.094Z,67.50
2019-02-26T08:50:24.091Z,67.50
2019-02-26T08:51:23.973Z,67.50
2019-02-26T08:52:25.026Z,67.50
2019-02-26T08:53:24.852Z,67.50
2019-02-26T08:54:26.089Z,67.50
2019-02-26T08:55:24.556Z,67.50
2019-02-26T08:56:25.849Z,67.50
2019-02-26T08:57:23.729Z,67.50
2019-02-26T08:58:25.711Z,67.50
2019-02-26T08:59:23.610Z,67.50
2019-02-26T09:00:23.615Z,67.50
2019-02-26T09:01:23.489Z,67.50
2019-02-26T09:02:23.486Z,67.50
2019-02-26T09:03:23.450Z,67.50
2019-02-26T09:04:23.881Z,67.50
2019-02-26T09:05:25.722Z,67.50
2019-02-26T09:06:23.247Z,67.50
2019-02-26T09:07:23.723Z,67.50
2019-02-26T09:08:23.248Z,67.50
2019-02-26T09:09:25.334Z,67.50
2019-02-26T09:10:23.453Z,67.50
2019-02-26T09:11:23.006Z,67.50
2019-02-26T09:12:24.739Z,67.50
2019-02-26T09:13:24.866Z,67.50
2019-02-26T09:14:22.887Z,67.50
2019-02-26T09:15:22.888Z,67.50
2019-02-26T09:16:25.086Z,67.50
2019-02-26T09:17:24.412Z,67.50
2019-02-26T09:18:25.837Z,67.50
2019-02-26T09:19:24.696Z,67.50
2019-02-26T09:20:22.645Z,61.88
2019-02-26T09:21:22.893Z,61.88
2019-02-26T09:22:23.547Z,61.88
2019-02-26T09:23:23.470Z,61.88
2019-02-26T09:24:22.403Z,61.88
2019-02-26T09:25:25.513Z,61.88
2019-02-26T09:26:22.402Z,61.88
2019-02-26T09:27:22.283Z,61.88
2019-02-26T09:28:23.086Z,61.88
2019-02-26T09:29:22.325Z,61.88
2019-02-26T09:30:22.169Z,61.88
2019-02-26T09:31:22.165Z,61.88
2019-02-26T09:32:22.042Z,61.88
2019-02-26T09:33:27.289Z,61.88
2019-02-26T09:34:26.019Z,61.88
2019-02-26T09:35:26.926Z,61.88
2019-02-26T09:36:23.628Z,61.88
2019-02-26T09:37:21.803Z,61.88
2019-02-26T09:38:22.971Z,61.88
2019-02-26T09:39:21.798Z,61.88
2019-02-26T09:40:23.520Z,61.88
2019-02-26T09:41:21.678Z,61.88
2019-02-26T09:42:23.268Z,61.88
2019-02-26T09:43:22.650Z,61.88
2019-02-26T09:44:21.556Z,61.88
2019-02-26T09:45:23.686Z,61.88
2019-02-26T09:46:21.449Z,61.88
2019-02-26T09:47:23.510Z,61.88
2019-02-26T09:48:21.943Z,61.88
2019-02-26T09:49:21.317Z,61.88
2019-02-26T09:50:22.644Z,61.88
2019-02-26T09:51:21.195Z,61.88
2019-02-26T09:52:25.237Z,61.88
2019-02-26T09:53:21.080Z,61.88
2019-02-26T09:54:22.589Z,61.88
2019-02-26T09:55:21.075Z,61.88
2019-02-26T09:56:20.956Z,61.88
2019-02-26T09:57:23.386Z,61.88
2019-02-26T09:58:22.895Z,61.88
2019-02-26T09:59:20.835Z,61.88
2019-02-26T10:00:25.301Z,61.88
2019-02-26T10:01:20.715Z,61.88
2019-02-26T10:02:21.971Z,61.88
2019-02-26T10:03:20.713Z,61.88
2019-02-26T10:04:22.106Z,61.88
2019-02-26T10:05:20.594Z,61.88
2019-02-26T10:06:21.602Z,61.88
2019-02-26T10:07:20.471Z,56.25
2019-02-26T10:08:22.323Z,56.25
2019-02-26T10:09:20.752Z,56.25
2019-02-26T10:10:20.355Z,56.25
2019-02-26T10:11:22.679Z,56.25
2019-02-26T10:12:20.231Z,56.25
2019-02-26T10:13:22.413Z,56.25
2019-02-26T10:14:20.116Z,56.25
2019-02-26T10:15:20.109Z,56.25
2019-02-26T10:16:21.638Z,56.25
2019-02-26T10:17:21.482Z,56.25
2019-02-26T10:18:21.139Z,56.25
2019-02-26T10:19:19.992Z,56.25
2019-02-26T10:20:22.529Z,56.25
2019-02-26T10:21:20.626Z,61.88
2019-02-26T10:22:19.833Z,56.25
2019-02-26T10:23:21.642Z,56.25
2019-02-26T10:24:22.941Z,56.25
2019-02-26T10:25:20.894Z,56.25
2019-02-26T10:26:19.627Z,56.25
2019-02-26T10:27:19.632Z,56.25
2019-02-26T10:28:21.570Z,56.25
2019-02-26T10:29:19.506Z,56.25
2019-02-26T10:30:19.509Z,56.25
2019-02-26T10:31:24.139Z,56.25
2019-02-26T10:32:19.387Z,56.25
2019-02-26T10:33:21.187Z,56.25
2019-02-26T10:34:20.837Z,56.25
2019-02-26T10:35:22.537Z,50.63
2019-02-26T10:36:19.148Z,50.63
2019-02-26T10:37:19.147Z,50.63
2019-02-26T10:38:19.145Z,50.63
2019-02-26T10:39:20.821Z,50.63
2019-02-26T10:40:19.512Z,50.63
2019-02-26T10:41:21.125Z,50.63
2019-02-26T10:42:18.906Z,50.63
2019-02-26T10:43:18.903Z,50.63
2019-02-26T10:44:18.784Z,50.63
2019-02-26T10:45:18.783Z,50.63
2019-02-26T10:46:18.785Z,50.63
2019-02-26T10:47:18.667Z,50.63
2019-02-26T10:48:21.901Z,50.63
2019-02-26T10:49:18.664Z,50.63
2019-02-26T10:50:20.411Z,50.63
2019-02-26T10:51:26.192Z,50.63
2019-02-26T10:52:19.420Z,50.63
2019-02-26T10:53:20.378Z,50.63
2019-02-26T10:54:18.422Z,50.63
2019-02-26T10:55:20.688Z,50.63
2019-02-26T10:56:18.303Z,50.63
2019-02-26T10:57:18.303Z,50.63
2019-02-26T10:58:18.179Z,50.63
2019-02-26T10:59:19.625Z,50.63
2019-02-26T11:00:18.492Z,50.63
2019-02-26T11:01:22.719Z,50.63
2019-02-26T11:02:20.632Z,45.00
2019-02-26T11:03:20.126Z,45.00
2019-02-26T11:04:17.941Z,45.00
2019-02-26T11:05:21.508Z,45.00
2019-02-26T11:06:19.175Z,45.00
2019-02-26T11:07:17.819Z,45.00
2019-02-26T11:08:17.830Z,45.00
2019-02-26T11:09:19.271Z,45.00
2019-02-26T11:10:20.149Z,45.00
2019-02-26T11:11:19.039Z,45.00
2019-02-26T11:12:17.575Z,50.63
2019-02-26T11:13:18.230Z,50.63
2019-02-26T11:14:19.383Z,50.63
2019-02-26T11:15:17.461Z,50.63
2019-02-26T11:16:21.825Z,50.63
2019-02-26T11:17:17.986Z,50.63
2019-02-26T11:18:18.146Z,50.63
2019-02-26T11:19:17.335Z,50.63
2019-02-26T11:20:18.860Z,50.63
2019-02-26T11:21:17.219Z,50.63
2019-02-26T11:22:18.709Z,50.63
2019-02-26T11:23:17.096Z,50.63
2019-02-26T11:24:17.095Z,50.63
2019-02-26T11:25:18.493Z,50.63
2019-02-26T11:26:18.778Z,50.63
2019-02-26T11:27:17.375Z,50.63
2019-02-26T11:28:16.854Z,50.63
2019-02-26T11:29:16.859Z,56.25
2019-02-26T11:30:18.288Z,56.25
2019-02-26T11:31:20.422Z,56.25
2019-02-26T11:32:16.732Z,56.25
2019-02-26T11:33:16.731Z,56.25
2019-02-26T11:34:16.620Z,56.25
2019-02-26T11:35:17.638Z,56.25
2019-02-26T11:36:16.573Z,61.88
2019-02-26T11:37:16.491Z,61.88
2019-02-26T11:38:17.126Z,61.88
2019-02-26T11:39:16.655Z,61.88
2019-02-26T11:40:17.288Z,61.88
2019-02-26T11:41:16.369Z,61.88
2019-02-26T11:42:18.416Z,61.88
2019-02-26T11:43:19.422Z,61.88
2019-02-26T11:44:20.143Z,67.50
2019-02-26T11:45:17.520Z,67.50
2019-02-26T11:46:16.130Z,73.13
2019-02-26T11:47:18.048Z,73.13
2019-02-26T11:48:17.662Z,73.13
2019-02-26T11:49:16.941Z,73.13
2019-02-26T11:50:15.890Z,78.75
2019-02-26T11:51:17.658Z,73.13
2019-02-26T11:52:19.560Z,73.13
2019-02-26T11:53:15.769Z,67.50
2019-02-26T11:54:17.638Z,67.50
2019-02-26T11:55:15.766Z,67.50
2019-02-26T11:56:17.596Z,67.50
2019-02-26T11:57:17.637Z,67.50
2019-02-26T11:58:16.548Z,67.50
2019-02-26T11:59:16.926Z,67.50
2019-02-26T12:00:24.225Z,67.50
2019-02-26T12:01:15.526Z,67.50
2019-02-26T12:02:24.864Z,73.13
2019-02-26T12:03:15.406Z,73.13
2019-02-26T12:04:16.998Z,73.13
2019-02-26T12:05:15.292Z,73.13
2019-02-26T12:06:15.285Z,73.13
2019-02-26T12:07:15.165Z,73.13
2019-02-26T12:08:17.400Z,73.13
2019-02-26T12:09:16.174Z,73.13
2019-02-26T12:10:15.046Z,73.13
2019-02-26T12:11:17.686Z,73.13
2019-02-26T12:12:15.047Z,78.75
2019-02-26T12:13:17.174Z,78.75
2019-02-26T12:14:16.953Z,78.75
2019-02-26T12:15:15.204Z,84.38
2019-02-26T12:16:14.804Z,84.38
2019-02-26T12:17:14.803Z,90.00
2019-02-26T12:18:16.862Z,90.00
2019-02-26T12:19:14.686Z,90.00
2019-02-26T12:20:17.175Z,84.38
2019-02-26T12:21:14.564Z,90.00
2019-02-26T12:22:14.564Z,95.63
2019-02-26T12:23:16.138Z,101.25
2019-02-26T12:24:14.443Z,101.25
2019-02-26T12:25:14.441Z,106.88
2019-02-26T12:26:16.355Z,112.50
2019-02-26T12:27:18.093Z,112.50
2019-02-26T12:28:14.318Z,123.75
2019-02-26T12:29:16.157Z,135.00
2019-02-26T12:30:15.847Z,118.13
2019-02-26T12:31:14.206Z,106.88
2019-02-26T12:32:14.202Z,118.13
2019-02-26T12:33:14.742Z,123.75
2019-02-26T12:34:14.584Z,135.00
2019-02-26T12:35:15.888Z,140.63
2019-02-26T12:36:13.957Z,129.38
2019-02-26T12:37:13.971Z,118.13
2019-02-26T12:39:16.207Z,112.50
2019-02-26T12:40:15.857Z,129.38
2019-02-26T12:41:15.841Z,157.50
2019-02-26T12:42:15.798Z,151.88
2019-02-26T12:43:17.718Z,180.00
2019-02-26T12:44:16.128Z,225.00
2019-02-26T12:45:13.807Z,219.38
2019-02-26T12:46:13.596Z,191.25
2019-02-26T12:47:15.437Z,196.88
2019-02-26T12:49:16.031Z,202.50
2019-02-26T12:50:13.359Z,196.88
2019-02-26T12:51:13.385Z,196.88
2019-02-26T12:52:15.182Z,185.63
2019-02-26T12:53:17.211Z,168.75
2019-02-26T12:54:15.579Z,146.25
2019-02-26T12:55:13.238Z,146.25
2019-02-26T12:56:13.113Z,151.88
2019-02-26T12:57:13.113Z,146.25
2019-02-26T12:58:15.274Z,135.00
2019-02-26T12:59:12.996Z,135.00
2019-02-26T13:00:13.980Z,129.38
2019-02-26T13:01:12.994Z,118.13
2019-02-26T13:02:16.699Z,106.88
2019-02-26T13:03:15.794Z,95.63
2019-02-26T13:04:13.985Z,95.63
2019-02-26T13:05:13.309Z,95.63
2019-02-26T13:06:15.336Z,90.00